createdAt,value
2023-03-06T00:00:22.174Z,11.55
2023-03-06T00:02:49.081Z,11.85
2023-03-06T00:05:15.972Z,14.02
2023-03-06T00:07:43.085Z,12.45
2023-03-06T00:10:14.073Z,12.20
2023-03-06T00:12:41.095Z,12.70
2023-03-06T00:15:08.360Z,15.18
2023-03-06T00:17:35.452Z,11.63
2023-03-06T00:20:02.296Z,13.93
2023-03-06T00:22:29.205Z,13.13
2023-03-06T00:24:56.105Z,13.18
2023-03-06T00:27:26.262Z,13.00
2023-03-06T00:32:23.542Z,12.93
2023-03-06T00:34:51.267Z,13.93
2023-03-06T00:37:18.584Z,13.18
2023-03-06T00:39:46.178Z,15.55
2023-03-06T00:42:13.394Z,12.70
2023-03-06T00:44:40.294Z,12.10
2023-03-06T00:47:07.299Z,13.77
2023-03-06T00:49:34.263Z,14.25
2023-03-06T00:52:01.200Z,17.08
2023-03-06T00:54:28.073Z,12.10
2023-03-06T00:56:54.953Z,14.40
2023-03-06T00:59:21.901Z,13.70
2023-03-06T01:01:48.768Z,13.82
2023-03-06T01:04:15.721Z,12.75
2023-03-06T01:06:42.637Z,14.23
2023-03-06T01:09:09.500Z,12.55
2023-03-06T01:11:36.389Z,13.45
2023-03-06T01:14:04.079Z,13.85
2023-03-06T01:16:31.202Z,16.92
2023-03-06T01:18:58.137Z,11.43
2023-03-06T01:21:25.141Z,12.13
2023-03-06T01:23:52.061Z,17.00
2023-03-06T01:26:18.999Z,16.52
2023-03-06T01:28:45.841Z,14.07
2023-03-06T01:31:12.787Z,12.70
2023-03-06T01:33:39.672Z,15.65
2023-03-06T01:36:10.946Z,14.65
2023-03-06T01:38:37.886Z,12.77
2023-03-06T01:41:05.059Z,11.68
2023-03-06T01:43:34.296Z,13.68
2023-03-06T01:46:29.047Z,15.07
2023-03-06T01:49:15.856Z,14.38
2023-03-06T01:52:10.197Z,13.82
2023-03-06T01:55:10.120Z,13.60
2023-03-06T01:57:40.188Z,13.13
2023-03-06T02:02:51.760Z,13.35
2023-03-06T02:05:18.638Z,14.05
2023-03-06T02:07:45.607Z,13.63
2023-03-06T02:10:14.387Z,16.48
2023-03-06T02:12:43.694Z,13.98
2023-03-06T02:15:15.024Z,19.47
2023-03-06T02:17:43.091Z,14.07
2023-03-06T02:20:26.582Z,17.02
2023-03-06T02:23:16.319Z,15.18
2023-03-06T02:25:50.314Z,14.07
2023-03-06T02:28:19.294Z,14.82
2023-03-06T02:30:47.278Z,13.00
2023-03-06T02:33:15.729Z,12.75
2023-03-06T02:36:05.177Z,14.60
2023-03-06T02:38:37.243Z,17.83
2023-03-06T02:41:05.493Z,14.07
2023-03-06T02:43:34.420Z,13.18
2023-03-06T02:46:02.436Z,14.02
2023-03-06T02:48:29.365Z,16.25
2023-03-06T02:50:56.273Z,14.05
2023-03-06T02:53:23.135Z,17.38
2023-03-06T02:55:50.126Z,13.27
2023-03-06T02:58:19.716Z,12.68
2023-03-06T03:00:47.931Z,12.77
2023-03-06T03:03:14.879Z,16.83
2023-03-06T03:05:41.751Z,14.13
2023-03-06T03:08:15.301Z,16.80
2023-03-06T03:10:42.631Z,15.35
2023-03-06T03:13:09.498Z,18.63
2023-03-06T03:15:38.121Z,15.80
2023-03-06T03:18:05.054Z,14.13
2023-03-06T03:20:32.039Z,13.52
2023-03-06T03:22:59.064Z,12.65
2023-03-06T03:25:26.864Z,14.18
2023-03-06T03:27:56.745Z,18.55
2023-03-06T03:30:23.706Z,14.43
2023-03-06T03:32:50.584Z,15.63
2023-03-06T03:35:17.795Z,14.18
2023-03-06T03:37:44.772Z,15.05
2023-03-06T03:40:12.768Z,15.43
2023-03-06T03:42:39.762Z,13.38
2023-03-06T03:45:07.800Z,17.10
2023-03-06T03:47:34.712Z,17.92
2023-03-06T03:50:02.640Z,13.80
2023-03-06T03:52:29.690Z,16.02
2023-03-06T03:54:56.889Z,13.52
2023-03-06T03:57:24.408Z,16.05
2023-03-06T03:59:53.135Z,14.43
2023-03-06T04:02:25.555Z,12.52
2023-03-06T04:05:08.389Z,12.85
2023-03-06T04:07:35.361Z,16.33
2023-03-06T04:10:02.328Z,20.35
2023-03-06T04:12:30.278Z,14.82
2023-03-06T04:14:57.267Z,18.60
2023-03-06T04:17:24.242Z,14.68
2023-03-06T04:19:52.181Z,17.55
2023-03-06T04:22:19.223Z,14.27
2023-03-06T04:24:48.931Z,14.73
2023-03-06T04:27:16.752Z,14.95
2023-03-06T04:29:43.857Z,16.42
2023-03-06T04:32:10.984Z,14.60
2023-03-06T04:34:38.994Z,16.75
2023-03-06T04:37:06.859Z,20.27
2023-03-06T04:39:34.206Z,15.15
2023-03-06T04:42:01.249Z,16.83
2023-03-06T04:44:28.261Z,19.58
2023-03-06T04:46:55.182Z,16.52
2023-03-06T04:49:22.266Z,15.77
2023-03-06T04:51:49.137Z,17.23
2023-03-06T04:54:17.952Z,16.20
2023-03-06T04:56:45.783Z,18.58
2023-03-06T04:59:12.620Z,15.23
2023-03-06T05:01:39.637Z,15.30
2023-03-06T05:04:06.514Z,19.30
2023-03-06T05:06:33.426Z,20.10
2023-03-06T05:09:00.281Z,18.10
2023-03-06T05:11:27.439Z,16.58
2023-03-06T05:13:54.256Z,17.92
2023-03-06T05:16:21.204Z,15.23
2023-03-06T05:18:50.609Z,14.50
2023-03-06T05:21:17.671Z,18.00
2023-03-06T05:23:44.576Z,15.55
2023-03-06T05:26:12.256Z,18.25
2023-03-06T05:28:39.238Z,21.30
2023-03-06T05:31:06.480Z,18.50
2023-03-06T05:33:34.141Z,18.42
2023-03-06T05:36:01.187Z,15.48
2023-03-06T05:38:28.110Z,20.38
2023-03-06T05:40:55.004Z,19.73
2023-03-06T05:43:21.886Z,18.20
2023-03-06T05:45:50.625Z,21.40
2023-03-06T05:48:17.511Z,22.52
2023-03-06T05:50:44.372Z,23.17
2023-03-06T05:53:11.251Z,16.40
2023-03-06T05:55:38.193Z,24.80
2023-03-06T05:58:05.072Z,19.40
2023-03-06T06:00:31.936Z,17.23
2023-03-06T06:03:01.236Z,21.17
2023-03-06T06:05:28.155Z,20.65
2023-03-06T06:07:55.134Z,21.38
2023-03-06T06:10:21.969Z,20.58
2023-03-06T06:12:48.924Z,18.88
2023-03-06T06:15:15.916Z,23.58
2023-03-06T06:17:42.777Z,23.15
2023-03-06T06:20:10.169Z,18.67
2023-03-06T06:22:38.112Z,15.88
2023-03-06T06:25:06.038Z,17.85
2023-03-06T06:27:33.016Z,22.35
2023-03-06T06:29:59.879Z,21.70
2023-03-06T06:32:26.754Z,22.33
2023-03-06T06:34:53.775Z,20.60
2023-03-06T06:37:20.660Z,22.83
2023-03-06T06:39:47.578Z,18.80
2023-03-06T06:42:30.954Z,24.40
2023-03-06T06:45:00.099Z,21.65
2023-03-06T06:47:27.128Z,28.02
2023-03-06T06:49:54.702Z,21.02
2023-03-06T06:52:22.083Z,18.25
2023-03-06T06:54:48.959Z,22.48
2023-03-06T06:57:15.992Z,20.95
2023-03-06T06:59:42.933Z,19.38
2023-03-06T07:02:13.912Z,19.50
2023-03-06T07:04:49.260Z,19.05
2023-03-06T07:07:19.649Z,17.38
2023-03-06T07:09:46.534Z,19.40
2023-03-06T07:12:13.414Z,19.80
2023-03-06T07:14:41.508Z,20.92
2023-03-06T07:17:09.381Z,20.55
2023-03-06T07:19:37.365Z,19.25
2023-03-06T07:22:05.090Z,18.85
2023-03-06T07:24:32.049Z,17.83
2023-03-06T07:26:58.955Z,18.75
2023-03-06T07:29:25.841Z,19.90
2023-03-06T07:31:52.721Z,15.55
2023-03-06T07:34:19.590Z,17.48
2023-03-06T07:36:46.423Z,15.88
2023-03-06T07:39:13.413Z,16.42
2023-03-06T07:41:40.430Z,20.80
2023-03-06T07:44:07.408Z,15.63
2023-03-06T07:46:34.385Z,16.38
2023-03-06T07:49:01.307Z,11.93
2023-03-06T07:51:28.297Z,14.93
2023-03-06T07:53:55.218Z,13.27
2023-03-06T07:56:22.184Z,12.85
2023-03-06T07:58:49.316Z,12.68
2023-03-06T08:01:20.486Z,16.17
2023-03-06T08:03:47.855Z,12.23
2023-03-06T08:06:22.203Z,10.38
2023-03-06T08:08:50.148Z,13.32
2023-03-06T08:11:17.992Z,12.85
2023-03-06T08:13:44.961Z,14.30
2023-03-06T08:16:12.124Z,12.27
2023-03-06T08:18:43.682Z,11.20
2023-03-06T08:21:13.777Z,12.00
2023-03-06T08:23:40.945Z,10.02
2023-03-06T08:26:13.010Z,11.85
2023-03-06T08:28:40.092Z,10.23
2023-03-06T08:31:14.858Z,13.23
2023-03-06T08:33:41.776Z,12.95
2023-03-06T08:36:08.824Z,11.88
2023-03-06T08:38:35.727Z,12.00
2023-03-06T08:41:02.740Z,13.00
2023-03-06T08:43:29.678Z,11.20
2023-03-06T08:45:57.106Z,12.50
2023-03-06T08:48:24.325Z,10.48
2023-03-06T08:50:51.333Z,11.35
2023-03-06T08:53:18.310Z,8.65
2023-03-06T08:55:45.240Z,10.68
2023-03-06T08:58:12.202Z,9.50
2023-03-06T09:00:39.466Z,10.68
2023-03-06T09:03:06.444Z,10.00
2023-03-06T09:05:33.507Z,9.00
2023-03-06T09:08:00.474Z,8.70
2023-03-06T09:10:27.487Z,9.13
2023-03-06T09:12:55.080Z,11.05
2023-03-06T09:15:22.662Z,12.30
2023-03-06T09:17:50.919Z,11.90
2023-03-06T09:20:18.363Z,10.43
2023-03-06T09:22:45.800Z,9.90
2023-03-06T09:25:20.532Z,10.18
2023-03-06T09:27:55.426Z,8.75
2023-03-06T09:30:28.950Z,10.35
2023-03-06T09:32:56.261Z,9.90
2023-03-06T09:35:23.202Z,8.23
2023-03-06T09:37:50.228Z,8.70
2023-03-06T09:40:20.091Z,10.32
2023-03-06T09:42:47.134Z,8.85
2023-03-06T09:45:14.456Z,9.02
2023-03-06T09:47:53.153Z,9.57
2023-03-06T09:50:48.281Z,8.35
2023-03-06T09:53:38.298Z,8.90
2023-03-06T09:56:22.588Z,10.20
2023-03-06T09:58:51.632Z,11.25
2023-03-06T10:01:31.929Z,9.65
2023-03-06T10:04:28.459Z,10.05
2023-03-06T10:07:14.794Z,9.43
2023-03-06T10:09:57.335Z,8.85
2023-03-06T10:12:35.404Z,10.15
2023-03-06T10:15:25.985Z,11.20
2023-03-06T10:17:53.228Z,9.45
2023-03-06T10:20:29.144Z,11.20
2023-03-06T10:23:11.132Z,8.40
2023-03-06T10:25:57.244Z,9.40
2023-03-06T10:28:29.828Z,8.73
2023-03-06T10:31:09.078Z,11.55
2023-03-06T10:33:48.526Z,11.37
2023-03-06T10:36:17.081Z,10.60
2023-03-06T10:38:44.643Z,9.60
2023-03-06T10:41:11.683Z,11.23
2023-03-06T10:44:04.734Z,10.57
2023-03-06T10:46:43.086Z,11.48
2023-03-06T10:49:35.810Z,10.45
2023-03-06T10:52:02.704Z,9.82
2023-03-06T10:54:31.704Z,10.75
2023-03-06T10:56:58.712Z,10.10
2023-03-06T10:59:28.416Z,10.65
2023-03-06T11:01:59.243Z,9.82
2023-03-06T11:04:30.185Z,11.23
2023-03-06T11:07:14.736Z,15.70
2023-03-06T11:09:57.296Z,8.93
2023-03-06T11:12:34.692Z,9.60
2023-03-06T11:15:23.347Z,12.48
2023-03-06T11:18:05.009Z,9.48
2023-03-06T11:20:52.385Z,9.20
2023-03-06T11:23:19.607Z,10.40
2023-03-06T11:25:56.750Z,11.18
2023-03-06T11:28:31.878Z,10.27
2023-03-06T11:31:15.451Z,9.95
2023-03-06T11:34:06.815Z,9.18
2023-03-06T11:36:56.541Z,9.95
2023-03-06T11:39:48.004Z,7.35
2023-03-06T11:42:26.275Z,8.52
2023-03-06T11:45:26.825Z,7.00
2023-03-06T11:48:31.852Z,7.38
2023-03-06T11:51:12.441Z,8.35
2023-03-06T11:53:39.808Z,7.10
2023-03-06T11:56:19.062Z,8.25
2023-03-06T11:59:18.812Z,7.38
2023-03-06T12:01:58.218Z,8.90
2023-03-06T12:04:31.304Z,11.77
2023-03-06T12:07:07.214Z,6.95
2023-03-06T12:09:56.422Z,9.45
2023-03-06T12:12:26.269Z,10.38
2023-03-06T12:17:44.388Z,9.18
2023-03-06T12:20:39.755Z,7.15
2023-03-06T12:23:37.265Z,7.38
2023-03-06T12:26:31.569Z,6.88
2023-03-06T12:29:13.434Z,10.55
2023-03-06T12:32:04.888Z,5.72
2023-03-06T12:34:38.346Z,6.97
2023-03-06T12:37:28.440Z,7.65
2023-03-06T12:40:25.621Z,7.50
2023-03-06T12:43:07.588Z,7.25
2023-03-06T12:45:35.256Z,6.25
2023-03-06T12:48:02.604Z,5.65
2023-03-06T12:50:31.175Z,6.03
2023-03-06T12:53:03.323Z,5.78
2023-03-06T12:55:38.061Z,5.72
2023-03-06T12:58:30.111Z,6.45
2023-03-06T13:01:04.714Z,7.32
2023-03-06T13:03:54.796Z,7.07
2023-03-06T13:06:54.242Z,6.28
2023-03-06T13:09:58.910Z,6.30
2023-03-06T13:12:47.611Z,6.18
2023-03-06T13:15:41.938Z,7.38
2023-03-06T13:18:23.952Z,7.18
2023-03-06T13:20:55.123Z,5.18
2023-03-06T13:23:37.345Z,5.38
2023-03-06T13:26:05.433Z,8.82
2023-03-06T13:28:45.026Z,5.53
2023-03-06T13:31:31.706Z,7.10
2023-03-06T13:34:36.820Z,6.35
2023-03-06T13:37:19.599Z,9.32
2023-03-06T13:40:10.165Z,5.90
2023-03-06T13:42:59.746Z,5.95
2023-03-06T13:45:30.850Z,5.22
2023-03-06T13:50:48.699Z,5.75
2023-03-06T13:53:27.843Z,5.45
2023-03-06T13:56:21.579Z,5.50
2023-03-06T13:59:02.101Z,7.95
2023-03-06T14:01:50.869Z,5.80
2023-03-06T14:04:57.556Z,6.00
2023-03-06T14:07:32.361Z,6.32
2023-03-06T14:10:08.437Z,6.15
2023-03-06T14:12:38.163Z,6.03
2023-03-06T14:15:23.428Z,7.38
2023-03-06T14:17:54.898Z,4.70
2023-03-06T14:20:22.057Z,4.88
2023-03-06T14:22:48.902Z,5.35
2023-03-06T14:25:29.170Z,8.68
2023-03-06T14:28:02.908Z,4.72
2023-03-06T14:30:32.696Z,7.07
2023-03-06T14:32:59.560Z,6.07
2023-03-06T14:35:27.853Z,4.85
2023-03-06T14:38:06.195Z,4.38
2023-03-06T14:40:40.950Z,5.03
2023-03-06T14:43:34.345Z,5.53
2023-03-06T14:46:02.675Z,5.05
2023-03-06T14:48:41.942Z,4.60
2023-03-06T14:51:27.396Z,3.78
2023-03-06T14:53:54.386Z,9.95
2023-03-06T14:56:22.631Z,5.97
2023-03-06T14:59:00.014Z,7.57
2023-03-06T15:01:34.192Z,5.43
2023-03-06T15:04:01.689Z,5.78
2023-03-06T15:06:28.648Z,5.15
2023-03-06T15:09:27.842Z,4.10
2023-03-06T15:12:05.321Z,10.00
2023-03-06T15:14:42.505Z,6.68
2023-03-06T15:17:18.599Z,5.85
2023-03-06T15:19:47.089Z,5.90
2023-03-06T15:22:28.351Z,9.20
2023-03-06T15:25:15.195Z,5.38
2023-03-06T15:27:44.349Z,5.60
2023-03-06T15:30:36.230Z,7.20
2023-03-06T15:33:22.984Z,7.57
2023-03-06T15:35:55.105Z,7.25
2023-03-06T15:38:44.328Z,5.90
2023-03-06T15:41:34.119Z,7.80
2023-03-06T15:44:02.336Z,21.35
2023-03-06T15:46:29.575Z,39.13
2023-03-06T15:49:03.240Z,32.47
2023-03-06T15:51:31.030Z,36.15
2023-03-06T15:54:09.949Z,40.05
2023-03-06T15:56:43.306Z,12.57
2023-03-06T15:59:24.461Z,14.50
2023-03-06T16:01:51.764Z,13.90
2023-03-06T16:04:19.839Z,9.93
2023-03-06T16:06:47.035Z,7.60
2023-03-06T16:09:14.625Z,5.03
2023-03-06T16:11:44.905Z,7.05
2023-03-06T16:14:18.835Z,9.73
2023-03-06T16:16:46.038Z,5.20
2023-03-06T16:19:26.094Z,7.68
2023-03-06T16:21:53.778Z,4.25
2023-03-06T16:24:20.672Z,5.45
2023-03-06T16:26:50.138Z,5.00
2023-03-06T16:29:25.113Z,5.95
2023-03-06T16:31:52.359Z,6.40
2023-03-06T16:34:19.913Z,4.70
2023-03-06T16:36:47.547Z,4.97
2023-03-06T16:39:19.110Z,5.75
2023-03-06T16:41:46.253Z,3.30
2023-03-06T16:44:13.483Z,5.55
2023-03-06T16:46:46.007Z,4.22
2023-03-06T16:49:23.793Z,4.70
2023-03-06T16:51:50.911Z,4.00
2023-03-06T16:54:17.797Z,3.35
2023-03-06T16:56:44.771Z,4.15
2023-03-06T16:59:11.984Z,3.60
2023-03-06T17:01:40.156Z,4.72
2023-03-06T17:04:07.096Z,4.05
2023-03-06T17:06:34.063Z,3.65
2023-03-06T17:09:01.023Z,2.90
2023-03-06T17:11:28.160Z,4.45
2023-03-06T17:13:55.474Z,3.55
2023-03-06T17:16:22.467Z,3.80
2023-03-06T17:18:49.847Z,3.25
2023-03-06T17:21:16.745Z,4.30
2023-03-06T17:23:44.543Z,5.05
2023-03-06T17:26:15.755Z,5.32
2023-03-06T17:28:42.896Z,4.15
2023-03-06T17:31:16.654Z,4.95
2023-03-06T17:33:43.817Z,4.32
2023-03-06T17:36:10.704Z,3.85
2023-03-06T17:38:37.814Z,3.50
2023-03-06T17:41:05.796Z,5.40
2023-03-06T17:43:32.951Z,4.10
2023-03-06T17:46:18.560Z,5.00
2023-03-06T17:48:45.537Z,4.57
2023-03-06T17:51:12.432Z,5.63
2023-03-06T17:53:39.506Z,4.00
2023-03-06T17:56:08.104Z,6.35
2023-03-06T17:58:35.095Z,5.70
2023-03-06T18:01:12.929Z,3.90
2023-03-06T18:03:40.062Z,4.20
2023-03-06T18:06:09.510Z,5.70
2023-03-06T18:08:37.324Z,4.30
2023-03-06T18:11:05.447Z,4.10
2023-03-06T18:13:36.381Z,4.70
2023-03-06T18:16:03.909Z,3.42
2023-03-06T18:18:30.842Z,5.25
2023-03-06T18:20:57.863Z,4.05
2023-03-06T18:23:25.161Z,5.18
2023-03-06T18:25:52.771Z,3.45
2023-03-06T18:28:19.709Z,4.10
2023-03-06T18:30:46.623Z,4.68
2023-03-06T18:33:13.507Z,5.35
2023-03-06T18:35:44.087Z,5.32
2023-03-06T18:38:11.050Z,5.75
2023-03-06T18:40:37.971Z,5.20
2023-03-06T18:43:04.960Z,4.20
2023-03-06T18:45:33.549Z,6.22
2023-03-06T18:48:00.514Z,6.68
2023-03-06T18:50:27.480Z,7.80
2023-03-06T18:52:54.374Z,6.10
2023-03-06T18:55:21.610Z,5.40
2023-03-06T18:57:48.478Z,6.10
2023-03-06T19:00:15.835Z,4.82
2023-03-06T19:02:42.740Z,4.80
2023-03-06T19:05:10.365Z,4.95
2023-03-06T19:07:37.383Z,8.23
2023-03-06T19:10:04.638Z,6.10
2023-03-06T19:12:33.013Z,6.93
2023-03-06T19:14:59.926Z,5.22
2023-03-06T19:17:26.805Z,4.35
2023-03-06T19:19:55.147Z,4.00
2023-03-06T19:22:23.147Z,5.15
2023-03-06T19:24:50.263Z,5.40
2023-03-06T19:27:17.260Z,5.78
2023-03-06T19:29:44.205Z,4.60
2023-03-06T19:32:11.162Z,5.05
2023-03-06T19:34:38.175Z,5.88
2023-03-06T19:37:05.035Z,6.28
2023-03-06T19:39:32.035Z,6.03
2023-03-06T19:41:58.973Z,4.20
2023-03-06T19:44:25.933Z,3.67
2023-03-06T19:46:52.837Z,2.63
2023-03-06T19:49:22.246Z,2.65
2023-03-06T19:51:49.118Z,5.60
2023-03-06T19:54:16.205Z,2.78
2023-03-06T19:56:43.211Z,2.95
2023-03-06T19:59:10.280Z,3.63
2023-03-06T20:01:38.743Z,4.88
2023-03-06T20:04:05.938Z,3.70
2023-03-06T20:06:39.128Z,3.70
2023-03-06T20:09:07.867Z,3.22
2023-03-06T20:11:34.855Z,2.70
2023-03-06T20:14:02.736Z,3.00
2023-03-06T20:16:30.067Z,7.68
2023-03-06T20:18:58.975Z,4.45
2023-03-06T20:21:28.490Z,4.75
2023-03-06T20:23:57.043Z,3.55
2023-03-06T20:26:24.894Z,4.70
2023-03-06T20:28:51.768Z,3.42
2023-03-06T20:31:19.992Z,3.38
2023-03-06T20:33:48.126Z,4.45
2023-03-06T20:36:19.929Z,5.45
2023-03-06T20:38:47.282Z,5.40
2023-03-06T20:41:15.716Z,6.93
2023-03-06T20:43:42.636Z,5.55
2023-03-06T20:46:09.481Z,6.63
2023-03-06T20:48:36.361Z,5.47
2023-03-06T20:51:04.178Z,8.20
2023-03-06T20:53:31.133Z,7.07
2023-03-06T20:55:58.026Z,5.50
2023-03-06T20:58:28.629Z,11.82
2023-03-06T21:00:56.142Z,9.63
2023-03-06T21:03:22.978Z,8.80
2023-03-06T21:05:49.947Z,7.43
2023-03-06T21:08:16.897Z,9.32
2023-03-06T21:10:46.871Z,7.03
2023-03-06T21:13:14.256Z,4.57
2023-03-06T21:15:41.905Z,9.20
2023-03-06T21:18:09.115Z,4.30
2023-03-06T21:20:38.479Z,5.55
2023-03-06T21:23:05.812Z,5.82
2023-03-06T21:25:32.844Z,6.70
2023-03-06T21:28:00.316Z,5.38
2023-03-06T21:30:27.983Z,4.95
2023-03-06T21:32:54.848Z,4.93
2023-03-06T21:35:21.841Z,6.55
2023-03-06T21:37:48.760Z,9.35
2023-03-06T21:40:15.736Z,3.78
2023-03-06T21:42:42.625Z,8.98
2023-03-06T21:45:09.930Z,6.15
2023-03-06T21:47:38.877Z,5.85
2023-03-06T21:50:07.450Z,5.85
2023-03-06T21:52:34.444Z,4.13
2023-03-06T21:55:01.343Z,5.40
2023-03-06T21:57:28.207Z,5.55
2023-03-06T21:59:55.063Z,4.78
2023-03-06T22:02:21.960Z,4.82
2023-03-06T22:04:52.673Z,4.60
2023-03-06T22:07:20.289Z,3.95
2023-03-06T22:09:47.371Z,7.13
2023-03-06T22:12:14.542Z,5.18
2023-03-06T22:14:43.637Z,5.45
2023-03-06T22:17:10.556Z,5.82
2023-03-06T22:19:37.384Z,4.70
2023-03-06T22:22:04.491Z,5.75
2023-03-06T22:24:32.231Z,5.65
2023-03-06T22:26:59.069Z,7.43
2023-03-06T22:29:25.993Z,4.85
2023-03-06T22:31:53.102Z,5.53
2023-03-06T22:34:20.087Z,4.10
2023-03-06T22:36:47.001Z,6.72
2023-03-06T22:39:13.906Z,7.55
2023-03-06T22:41:40.925Z,5.05
2023-03-06T22:44:07.760Z,4.95
2023-03-06T22:46:34.681Z,6.10
2023-03-06T22:49:01.876Z,4.75
2023-03-06T22:51:29.475Z,5.85
2023-03-06T22:53:56.511Z,5.55
2023-03-06T22:56:23.338Z,6.90
2023-03-06T22:58:50.209Z,4.97
2023-03-06T23:01:21.556Z,5.40
2023-03-06T23:03:58.852Z,7.25
2023-03-06T23:06:30.928Z,5.68
2023-03-06T23:08:59.990Z,5.45
2023-03-06T23:11:28.045Z,5.70
2023-03-06T23:14:13.283Z,8.23
2023-03-06T23:16:58.630Z,7.20
2023-03-06T23:19:44.465Z,5.63
2023-03-06T23:22:29.687Z,6.68
2023-03-06T23:25:15.212Z,4.90
2023-03-06T23:27:42.272Z,5.55
2023-03-06T23:30:09.651Z,4.03
2023-03-06T23:32:36.492Z,5.95
2023-03-06T23:35:03.408Z,4.47
2023-03-06T23:37:30.290Z,6.35
2023-03-06T23:39:57.316Z,4.60
2023-03-06T23:42:24.266Z,4.90
2023-03-06T23:44:51.108Z,4.00
2023-03-06T23:47:20.086Z,4.72
2023-03-06T23:49:47.042Z,4.68
2023-03-06T23:52:13.914Z,3.78
2023-03-06T23:54:40.828Z,4.78
2023-03-06T23:57:07.811Z,4.43
2023-03-06T23:59:34.724Z,4.70
